Time;durP1;ratioP1;P1;durP2;ratioP2;P2;SDS_P1;SDS_P2;PMS_P1;PMS_P2;Temp;Humidity;BMP_temperature;BMP_pressure;BME280_temperature;BME280_humidity;BME280_pressure;Samples;Min_cycle;Max_cycle;Signal;HPM_P1;HPM_P2
2023/09/07 00:00:55;;;;;;;9.85;8.25;;;;;;;17.41;69.90;101750.47;7399369;19;20027;-67
2023/09/07 00:03:23;;;;;;;10.23;8.82;;;;;;;17.37;69.59;101748.81;7399488;19;20085;-67
2023/09/07 00:05:52;;;;;;;9.20;8.30;;;;;;;17.34;70.23;101745.41;7397285;19;20027;-67
2023/09/07 00:08:20;;;;;;;8.65;7.82;;;;;;;17.31;70.06;101756.97;7398904;19;20027;-67
2023/09/07 00:10:48;;;;;;;10.32;8.43;;;;;;;17.25;70.10;101752.78;7396846;19;20547;-67
2023/09/07 00:13:17;;;;;;;10.95;8.85;;;;;;;17.21;70.09;101759.09;7398026;19;20022;-67
2023/09/07 00:15:45;;;;;;;12.73;8.95;;;;;;;17.17;70.52;101754.78;7396769;19;20482;-67
2023/09/07 00:18:16;;;;;;;10.73;8.73;;;;;;;17.14;70.63;101759.38;7398372;19;20367;-67
2023/09/07 00:20:45;;;;;;;9.95;8.25;;;;;;;17.09;70.52;101760.34;7398440;19;20505;-67
2023/09/07 00:23:13;;;;;;;9.75;8.15;;;;;;;17.05;70.65;101758.72;7398613;19;20011;-67
2023/09/07 00:25:42;;;;;;;10.25;8.43;;;;;;;17.01;70.93;101757.09;7396503;19;20371;-67
2023/09/07 00:28:10;;;;;;;10.82;8.63;;;;;;;16.99;70.89;101752.78;7398447;19;20010;-67
2023/09/07 00:30:39;;;;;;;9.48;8.48;;;;;;;16.97;70.91;101754.59;7396533;19;20007;-67
2023/09/07 00:33:07;;;;;;;9.98;8.80;;;;;;;16.93;71.28;101761.78;7398319;19;20011;-67
2023/09/07 00:35:39;;;;;;;10.00;9.00;;;;;;;16.88;71.19;101753.97;7396432;19;20018;-68
2023/09/07 00:38:07;;;;;;;9.13;8.23;;;;;;;16.84;71.88;101756.75;7397766;19;20024;-67
2023/09/07 00:40:37;;;;;;;10.55;8.80;;;;;;;16.80;71.85;101755.13;7398088;19;20014;-67
2023/09/07 00:43:07;;;;;;;9.40;7.75;;;;;;;16.76;71.70;101760.50;7397933;19;20018;-67
2023/09/07 00:45:35;;;;;;;10.43;8.15;;;;;;;16.73;72.11;101755.31;7395823;19;20478;-67
2023/09/07 00:48:04;;;;;;;9.48;8.05;;;;;;;16.69;72.08;101758.09;7397743;19;20010;-67
2023/09/07 00:50:32;;;;;;;9.13;8.23;;;;;;;16.65;72.05;101762.63;7396147;19;20013;-67
2023/09/07 00:53:06;;;;;;;8.80;7.90;;;;;;;16.61;72.19;101761.84;7397622;19;20022;-67
2023/09/07 00:55:36;;;;;;;9.80;8.80;;;;;;;16.55;72.31;101766.47;7396438;19;20018;-67
2023/09/07 00:58:05;;;;;;;11.88;8.57;;;;;;;16.50;72.57;101763.09;7397399;19;20015;-67
2023/09/07 01:00:34;;;;;;;9.82;8.65;;;;;;;16.44;72.73;101764.13;7396976;19;20500;-67
2023/09/07 01:03:03;;;;;;;10.45;9.32;;;;;;;16.39;72.57;101769.59;7396921;19;20075;-67
2023/09/07 01:05:37;;;;;;;9.60;8.60;;;;;;;16.37;72.80;101765.25;7395981;19;20018;-68
2023/09/07 01:08:17;;;;;;;10.10;8.98;;;;;;;16.33;72.82;101767.13;7397512;19;20022;-67
2023/09/07 01:10:46;;;;;;;9.52;8.63;;;;;;;16.31;73.10;101762.78;7395527;19;20011;-67
2023/09/07 01:13:14;;;;;;;9.70;8.70;;;;;;;16.27;72.98;101765.50;7397256;19;20019;-67
2023/09/07 01:15:43;;;;;;;10.13;9.13;;;;;;;16.25;72.98;101764.69;7395562;19;20419;-67
2023/09/07 01:18:13;;;;;;;9.77;8.77;;;;;;;16.22;73.16;101758.63;7396841;19;20022;-67
2023/09/07 01:20:43;;;;;;;9.88;8.60;;;;;;;16.20;73.16;101755.13;7396397;19;20027;-67
2023/09/07 01:23:14;;;;;;;12.43;9.05;;;;;;;16.18;73.32;101757.00;7397021;19;20018;-67
2023/09/07 01:25:45;;;;;;;10.50;9.43;;;;;;;16.15;73.17;101757.06;7393035;19;20014;-67
2023/09/07 01:28:15;;;;;;;9.85;8.85;;;;;;;16.10;73.38;101754.56;7396735;19;20010;-67
2023/09/07 01:30:43;;;;;;;10.30;9.30;;;;;;;16.06;73.70;101752.91;7395367;19;20033;-67
2023/09/07 01:33:12;;;;;;;11.05;9.07;;;;;;;16.00;73.92;101758.34;7396320;19;20035;-67
2023/09/07 01:35:42;;;;;;;10.63;9.40;;;;;;;15.94;74.01;101756.78;7394687;19;20031;-67
2023/09/07 01:38:10;;;;;;;9.90;8.95;;;;;;;15.88;74.17;101755.16;7396153;19;20019;-67
2023/09/07 01:40:41;;;;;;;13.27;9.75;;;;;;;15.84;74.42;101757.94;7396200;19;20015;-67
2023/09/07 01:43:10;;;;;;;10.60;9.50;;;;;;;15.79;74.37;101756.22;7396489;19;20032;-67
2023/09/07 01:45:38;;;;;;;10.10;8.32;;;;;;;15.77;74.64;101752.78;7393608;19;20022;-67
2023/09/07 01:48:10;;;;;;;12.05;9.43;;;;;;;15.76;74.67;101758.13;7395862;19;20028;-67
2023/09/07 01:50:39;;;;;;;9.65;8.75;;;;;;;15.72;74.52;101744.09;7394514;19;20006;-67
2023/09/07 01:53:07;;;;;;;11.05;9.85;;;;;;;15.68;74.83;101758.31;7395422;19;20069;-67
2023/09/07 01:55:36;;;;;;;10.98;9.98;;;;;;;15.67;74.97;101753.94;7394344;19;20031;-67
2023/09/07 01:58:07;;;;;;;11.43;9.77;;;;;;;15.64;74.99;101754.91;7397082;19;20031;-68
2023/09/07 02:00:39;;;;;;;10.63;9.52;;;;;;;15.61;75.02;101756.75;7400821;19;20019;-69
2023/09/07 02:03:08;;;;;;;12.15;10.30;;;;;;;15.60;75.27;101760.31;7397342;19;20024;-67
2023/09/07 02:05:36;;;;;;;12.20;9.32;;;;;;;15.57;75.48;101755.97;7394175;19;20010;-68
2023/09/07 02:08:05;;;;;;;12.48;9.95;;;;;;;15.55;75.67;101754.28;7395315;19;20014;-68
2023/09/07 02:10:34;;;;;;;12.63;9.75;;;;;;;15.53;75.66;101764.00;7394443;19;20013;-69
2023/09/07 02:13:03;;;;;;;10.40;9.40;;;;;;;15.50;75.98;101751.72;7395199;19;20397;-69
2023/09/07 02:15:34;;;;;;;11.38;10.27;;;;;;;15.47;75.93;101750.03;7395176;19;20024;-68
2023/09/07 02:18:03;;;;;;;14.50;9.57;;;;;;;15.44;76.20;101746.59;7395704;19;20018;-68
2023/09/07 02:20:31;;;;;;;11.52;9.40;;;;;;;15.41;76.39;101747.56;7394851;19;20025;-68
2023/09/07 02:23:00;;;;;;;10.48;9.23;;;;;;;15.40;76.14;101747.59;7394888;19;20070;-68
2023/09/07 02:25:30;;;;;;;11.43;9.23;;;;;;;15.38;76.22;101750.28;7393228;19;20021;-68
2023/09/07 02:27:59;;;;;;;10.23;9.32;;;;;;;15.35;76.75;101747.72;7394747;19;20011;-67
2023/09/07 02:30:27;;;;;;;11.57;9.73;;;;;;;15.34;76.68;101742.47;7394087;19;20017;-67
2023/09/07 02:32:58;;;;;;;10.65;9.45;;;;;;;15.31;77.03;101748.69;7394134;19;20014;-69
2023/09/07 02:35:27;;;;;;;10.65;9.60;;;;;;;15.28;77.00;101741.72;7392751;19;20037;-68
2023/09/07 02:37:55;;;;;;;10.65;9.57;;;;;;;15.27;76.87;101736.47;7399267;19;20015;-68
2023/09/07 02:40:24;;;;;;;12.13;10.15;;;;;;;15.24;77.24;101737.44;7401745;19;20007;-69
2023/09/07 02:42:52;;;;;;;10.40;9.23;;;;;;;15.22;77.11;101743.66;7401442;19;20070;-68
2023/09/07 02:45:20;;;;;;;11.23;10.10;;;;;;;15.19;77.36;101746.38;7399095;19;20080;-68
2023/09/07 02:47:50;;;;;;;11.60;9.32;;;;;;;15.15;77.41;101745.56;7401799;19;20022;-68
2023/09/07 02:50:21;;;;;;;10.88;9.73;;;;;;;15.10;77.45;101751.00;7400628;19;20014;-68
2023/09/07 02:52:50;;;;;;;11.40;9.65;;;;;;;15.06;77.80;101749.31;7401228;19;20482;-69
2023/09/07 02:55:18;;;;;;;12.35;10.00;;;;;;;15.05;77.84;101758.16;7399903;19;20031;-68
2023/09/07 02:57:47;;;;;;;11.88;9.63;;;;;;;15.02;77.89;101758.22;7398180;19;20010;-68
2023/09/07 03:00:17;;;;;;;10.75;9.75;;;;;;;15.00;77.88;101752.13;7401229;19;20015;-68
2023/09/07 03:02:46;;;;;;;10.60;9.60;;;;;;;14.98;77.87;101756.56;7401341;19;20420;-67
2023/09/07 03:05:14;;;;;;;12.32;10.20;;;;;;;14.95;78.23;101761.91;7399742;19;20022;-68
2023/09/07 03:07:48;;;;;;;11.27;9.45;;;;;;;14.92;78.21;101764.63;7400686;19;20015;-68
2023/09/07 03:10:16;;;;;;;;;;;;;;;14.88;78.23;101750.63;7401697;19;20014;-68
2023/09/07 03:12:45;;;;;;;11.25;9.52;;;;;;;14.85;77.81;101757.75;7400387;19;20281;-68
2023/09/07 03:15:14;;;;;;;10.80;9.70;;;;;;;14.81;78.17;101757.84;7397863;19;20014;-68
2023/09/07 03:17:42;;;;;;;10.98;9.90;;;;;;;14.78;78.45;101757.88;7400721;19;20423;-68
2023/09/07 03:20:15;;;;;;;11.25;10.05;;;;;;;14.76;78.69;101751.78;7400567;19;20021;-68
2023/09/07 03:22:47;;;;;;;11.18;10.02;;;;;;;14.76;78.76;101756.19;7400744;19;20362;-68
2023/09/07 03:25:16;;;;;;;11.85;9.93;;;;;;;14.73;79.11;101757.13;7399404;19;20031;-67
2023/09/07 03:27:45;;;;;;;11.43;10.23;;;;;;;14.71;79.11;101753.66;7400181;19;20029;-68
2023/09/07 03:30:14;;;;;;;13.40;10.77;;;;;;;14.69;79.51;101757.25;7399715;19;20020;-67
2023/09/07 03:32:42;;;;;;;12.30;10.98;;;;;;;14.67;79.31;101754.63;7400237;19;20010;-67
2023/09/07 03:35:11;;;;;;;11.32;10.10;;;;;;;14.65;79.60;101759.94;7398182;19;20027;-67
2023/09/07 03:37:39;;;;;;;11.63;10.35;;;;;;;14.63;79.71;101760.84;7399444;19;20010;-68
2023/09/07 03:40:11;;;;;;;14.77;10.90;;;;;;;14.61;79.78;101763.53;7399601;19;20017;-68
2023/09/07 03:42:40;;;;;;;11.35;10.18;;;;;;;14.59;79.85;101769.75;7399843;19;20016;-67
2023/09/07 03:45:09;;;;;;;10.73;9.70;;;;;;;14.56;79.99;101764.53;7397029;19;20018;-67
2023/09/07 03:47:37;;;;;;;12.23;10.88;;;;;;;14.53;79.94;101761.97;7397133;19;20013;-67
2023/09/07 03:50:07;;;;;;;11.68;10.23;;;;;;;14.49;80.02;101762.06;7398221;19;20018;-68
2023/09/07 03:52:35;;;;;;;13.70;10.32;;;;;;;14.47;80.06;101761.19;7399783;19;20074;-67
2023/09/07 03:55:04;;;;;;;12.50;11.23;;;;;;;14.41;80.05;101766.63;7398485;19;20018;-67
2023/09/07 03:57:35;;;;;;;12.02;10.65;;;;;;;14.38;80.16;101766.69;7399407;19;20070;-67
2023/09/07 04:00:08;;;;;;;12.23;10.88;;;;;;;14.36;80.32;101770.28;7400302;19;20023;-67
2023/09/07 04:02:36;;;;;;;12.70;11.40;;;;;;;14.32;80.43;101764.19;7396530;19;20485;-67
2023/09/07 04:05:05;;;;;;;11.40;10.30;;;;;;;14.28;80.58;101760.72;7397141;19;20490;-67
2023/09/07 04:07:33;;;;;;;11.02;9.93;;;;;;;14.27;80.57;101768.69;7399029;19;20015;-67
2023/09/07 04:10:02;;;;;;;11.38;10.23;;;;;;;14.23;80.72;101759.06;7398050;19;20482;-68
2023/09/07 04:12:31;;;;;;;11.77;10.65;;;;;;;14.21;80.92;101759.09;7396697;19;20074;-67
2023/09/07 04:15:02;;;;;;;13.80;11.00;;;;;;;14.18;81.01;101767.09;7397418;19;20474;-67
2023/09/07 04:17:39;;;;;;;14.77;10.60;;;;;;;14.16;81.06;101764.47;7398834;19;20014;-66
2023/09/07 04:20:11;;;;;;;13.10;10.07;;;;;;;14.13;81.21;101756.63;7397963;19;20011;-67
2023/09/07 04:22:41;;;;;;;11.45;10.25;;;;;;;14.11;81.31;101758.41;7398664;19;20018;-67
2023/09/07 04:25:10;;;;;;;11.68;10.45;;;;;;;14.08;81.21;101754.97;7397085;19;20018;-67
2023/09/07 04:27:38;;;;;;;13.20;11.63;;;;;;;14.06;81.52;101759.44;7398165;19;20027;-66
2023/09/07 04:30:11;;;;;;;16.33;13.13;;;;;;;14.03;81.53;101765.63;7397808;19;20011;-66
2023/09/07 04:32:39;;;;;;;14.38;10.77;;;;;;;14.01;81.64;101762.16;7396160;19;20021;-67
2023/09/07 04:35:09;;;;;;;14.57;10.30;;;;;;;13.98;81.79;101765.72;7396042;19;20006;-68
2023/09/07 04:37:37;;;;;;;12.23;10.10;;;;;;;13.98;81.77;101763.09;7397542;19;20027;-68
2023/09/07 04:40:09;;;;;;;12.38;10.70;;;;;;;13.96;81.82;101769.28;7397408;19;20108;-68
2023/09/07 04:42:38;;;;;;;15.18;10.82;;;;;;;13.93;81.90;101761.44;7394849;19;20019;-68
2023/09/07 04:45:10;;;;;;;12.20;10.60;;;;;;;13.92;82.21;101765.84;7395565;19;20010;-68
2023/09/07 04:47:39;;;;;;;13.10;11.32;;;;;;;13.89;82.09;101763.28;7397058;19;20510;-68
2023/09/07 04:50:09;;;;;;;13.27;10.80;;;;;;;13.88;82.10;101768.59;7397518;19;20015;-68
2023/09/07 04:52:37;;;;;;;11.25;10.15;;;;;;;13.87;82.54;101769.47;7396058;19;20022;-68
2023/09/07 04:55:06;;;;;;;13.52;11.70;;;;;;;13.87;82.46;101765.06;7396095;19;20094;-69
2023/09/07 04:57:35;;;;;;;12.52;10.98;;;;;;;13.85;82.71;101767.72;7396750;19;20018;-67
2023/09/07 05:00:03;;;;;;;14.68;11.38;;;;;;;13.87;82.45;101772.13;7396043;19;20031;-67
2023/09/07 05:02:38;;;;;;;14.23;10.98;;;;;;;13.87;82.71;101772.13;7396064;19;20021;-67
2023/09/07 05:05:07;;;;;;;12.05;10.85;;;;;;;13.88;82.88;101779.13;7393851;19;20022;-68
2023/09/07 05:07:35;;;;;;;13.80;11.10;;;;;;;13.88;83.11;101774.72;7396156;19;20010;-67
2023/09/07 05:10:04;;;;;;;14.27;11.27;;;;;;;13.89;83.04;101772.94;7394627;19;20792;-68
2023/09/07 05:12:32;;;;;;;13.82;11.63;;;;;;;13.90;82.96;101774.69;7393689;19;20030;-68
2023/09/07 05:15:01;;;;;;;15.52;12.48;;;;;;;13.91;83.24;101776.44;7394020;19;20027;-68
2023/09/07 05:17:30;;;;;;;16.05;12.80;;;;;;;13.92;83.17;101780.81;7395538;19;20495;-68
2023/09/07 05:20:01;;;;;;;13.45;12.00;;;;;;;13.94;83.39;101786.91;7393461;19;20022;-69
2023/09/07 05:22:39;;;;;;;13.57;12.15;;;;;;;13.96;83.18;101788.66;7396250;19;20011;-67
2023/09/07 05:25:15;;;;;;;14.93;12.68;;;;;;;13.99;83.67;101780.66;7394556;19;20402;-68
2023/09/07 05:27:44;;;;;;;14.00;12.52;;;;;;;14.01;83.64;101784.16;7394949;19;20552;-66
2023/09/07 05:30:20;;;;;;;14.82;13.27;;;;;;;14.06;83.59;101784.03;7392729;19;20078;-67
2023/09/07 05:32:48;;;;;;;14.60;13.10;;;;;;;14.09;83.75;101786.63;7394806;19;20010;-68
2023/09/07 05:35:20;;;;;;;26.40;21.58;;;;;;;14.13;84.13;101788.31;7394372;19;20074;-68
2023/09/07 05:37:49;;;;;;;17.75;15.75;;;;;;;14.20;83.96;101790.81;7395214;19;20010;-67
2023/09/07 05:40:17;;;;;;;16.38;13.88;;;;;;;14.24;83.79;101789.84;7395403;19;20066;-69
2023/09/07 05:42:46;;;;;;;16.83;14.15;;;;;;;14.27;84.14;101795.94;7395666;19;20027;-69
2023/09/07 05:45:14;;;;;;;18.90;14.55;;;;;;;14.30;84.06;101795.88;7393765;19;20022;-67
2023/09/07 05:47:43;;;;;;;19.38;15.40;;;;;;;14.35;84.12;101793.13;7395121;19;20031;-67
2023/09/07 05:50:12;;;;;;;15.68;14.07;;;;;;;14.40;84.08;101804.47;7395014;19;20078;-68
2023/09/07 05:52:43;;;;;;;14.82;13.30;;;;;;;14.42;84.03;101805.31;7393940;19;20027;-68
2023/09/07 05:55:11;;;;;;;15.00;13.50;;;;;;;14.48;83.95;101810.47;7394618;19;20099;-68
2023/09/07 05:57:40;;;;;;;15.45;13.85;;;;;;;14.52;83.94;101813.91;7394794;19;20031;-68
2023/09/07 06:00:10;;;;;;;14.02;12.65;;;;;;;14.58;83.68;101810.25;7394699;19;20018;-67
2023/09/07 06:02:38;;;;;;;14.70;13.30;;;;;;;14.62;83.87;101812.81;7394539;19;20498;-67
2023/09/07 06:05:08;;;;;;;14.48;12.98;;;;;;;14.67;83.86;101818.00;7393427;19;20360;-67
2023/09/07 06:07:36;;;;;;;14.20;12.75;;;;;;;14.73;83.76;101824.94;7393683;19;20506;-68
2023/09/07 06:10:08;;;;;;;17.45;12.98;;;;;;;14.77;83.57;101822.22;7394683;19;20018;-68
2023/09/07 06:12:38;;;;;;;15.15;12.77;;;;;;;14.84;83.50;101820.31;7391939;19;20070;-68
2023/09/07 06:15:07;;;;;;;13.90;12.50;;;;;;;14.90;83.47;101817.53;7393913;19;20015;-68
2023/09/07 06:17:36;;;;;;;14.43;12.75;;;;;;;14.97;83.44;101826.16;7394265;19;20474;-68
2023/09/07 06:20:05;;;;;;;14.40;12.95;;;;;;;15.03;83.21;101825.19;7394423;19;20066;-68
2023/09/07 06:22:34;;;;;;;15.80;13.25;;;;;;;15.09;83.01;101828.53;7394107;19;20481;-68
2023/09/07 06:25:02;;;;;;;15.73;13.55;;;;;;;15.17;82.91;101824.84;7394225;19;20014;-68
2023/09/07 06:27:33;;;;;;;15.38;13.57;;;;;;;15.24;82.97;101824.66;7392780;19;20481;-68
2023/09/07 06:30:02;;;;;;;15.80;13.32;;;;;;;15.31;82.90;101828.00;7391558;19;20477;-69
2023/09/07 06:32:31;;;;;;;20.70;14.38;;;;;;;15.39;82.61;101828.72;7392643;19;20017;-67
2023/09/07 06:34:59;;;;;;;14.52;12.80;;;;;;;15.47;82.35;101826.72;7393175;19;20018;-67
2023/09/07 06:37:28;;;;;;;15.18;12.88;;;;;;;15.56;82.30;101830.06;7391899;19;20018;-67
2023/09/07 06:39:56;;;;;;;13.85;12.45;;;;;;;15.64;81.99;101828.06;7391750;19;20015;-67
2023/09/07 06:42:25;;;;;;;14.50;12.95;;;;;;;15.72;81.96;101831.41;7394188;19;20094;-67
2023/09/07 06:44:56;;;;;;;14.43;13.02;;;;;;;15.81;81.95;101832.94;7392619;19;20070;-67
2023/09/07 06:47:24;;;;;;;15.98;13.60;;;;;;;15.90;81.62;101831.88;7392158;19;20032;-67
2023/09/07 06:49:53;;;;;;;14.63;13.02;;;;;;;15.99;81.19;101833.41;7393266;19;20478;-68
2023/09/07 06:52:22;;;;;;;19.67;15.65;;;;;;;16.08;80.73;101836.66;7392172;19;20014;-67
2023/09/07 06:54:54;;;;;;;15.27;12.48;;;;;;;16.18;80.78;101831.13;7391774;19;20113;-67
2023/09/07 06:57:22;;;;;;;13.35;12.07;;;;;;;16.27;80.63;101830.84;7392963;19;20450;-67
2023/09/07 06:59:51;;;;;;;15.25;13.50;;;;;;;16.36;80.04;101835.88;7392081;19;20013;-66
2023/09/07 07:02:22;;;;;;;18.75;13.45;;;;;;;16.46;79.97;101839.13;7392506;19;20015;-67
2023/09/07 07:04:50;;;;;;;13.65;12.07;;;;;;;16.55;79.79;101825.59;7390863;19;20027;-66
2023/09/07 07:07:19;;;;;;;15.23;13.45;;;;;;;16.65;79.40;101833.28;7393765;19;20027;-67
2023/09/07 07:09:47;;;;;;;15.23;12.82;;;;;;;16.73;78.98;101834.81;7393076;19;20073;-67
2023/09/07 07:12:16;;;;;;;14.75;12.90;;;;;;;16.83;78.86;101835.38;7392554;19;20023;-67
2023/09/07 07:14:45;;;;;;;15.30;12.95;;;;;;;16.91;78.67;101828.09;7392194;19;20109;-67
2023/09/07 07:17:13;;;;;;;16.45;13.10;;;;;;;17.01;78.23;101828.69;7392671;19;20035;-68
2023/09/07 07:19:45;;;;;;;13.90;12.32;;;;;;;17.08;78.13;101827.56;7391363;19;20019;-68
2023/09/07 07:22:13;;;;;;;15.27;13.68;;;;;;;17.19;77.60;101827.22;7393076;19;20019;-67
2023/09/07 07:24:42;;;;;;;16.63;14.57;;;;;;;17.28;77.30;101825.19;7396193;19;20021;-66
2023/09/07 07:27:10;;;;;;;13.82;12.32;;;;;;;17.36;77.10;101823.16;7400411;19;20015;-66
2023/09/07 07:29:39;;;;;;;14.75;12.80;;;;;;;17.44;76.92;101818.47;7400293;19;20018;-66
2023/09/07 07:32:08;;;;;;;14.98;13.40;;;;;;;17.54;76.56;101821.66;7398256;19;20025;-66
2023/09/07 07:34:36;;;;;;;15.70;14.15;;;;;;;17.63;76.24;101820.47;7398448;19;20074;-66
2023/09/07 07:37:08;;;;;;;13.68;12.13;;;;;;;17.71;76.00;101821.94;7397584;19;20015;-66
2023/09/07 07:39:36;;;;;;;17.80;12.25;;;;;;;17.82;75.82;101826.00;7399530;19;20481;-65
2023/09/07 07:42:06;;;;;;;19.58;14.00;;;;;;;17.90;75.58;101822.16;7399818;19;20010;-65
2023/09/07 07:44:34;;;;;;;17.88;12.63;;;;;;;18.00;74.98;101824.56;7396284;19;20011;-65
2023/09/07 07:47:03;;;;;;;12.50;11.25;;;;;;;18.10;74.97;101825.94;7399478;19;20392;-65
2023/09/07 07:49:32;;;;;;;16.10;11.48;;;;;;;18.19;74.50;101824.75;7396984;19;20015;-65
2023/09/07 07:52:01;;;;;;;15.55;12.13;;;;;;;18.29;74.06;101828.78;7398479;19;20186;-65
2023/09/07 07:54:32;;;;;;;12.73;11.43;;;;;;;18.38;73.86;101831.09;7398344;19;20022;-66
2023/09/07 07:57:00;;;;;;;11.88;10.68;;;;;;;18.48;73.08;101826.31;7399415;19;20015;-66
2023/09/07 07:59:29;;;;;;;11.80;10.57;;;;;;;18.60;72.46;101827.63;7398655;19;20038;-66
2023/09/07 08:01:57;;;;;;;11.65;10.32;;;;;;;18.70;71.92;101833.47;7396473;19;20031;-66
2023/09/07 08:04:25;;;;;;;9.65;8.45;;;;;;;18.81;71.56;101833.91;7397636;19;20473;-66
2023/09/07 08:06:58;;;;;;;11.10;9.85;;;;;;;18.93;71.07;101829.06;7398237;19;20018;-66
2023/09/07 08:09:26;;;;;;;9.95;8.93;;;;;;;19.01;70.35;101825.19;7398766;19;20019;-66
2023/09/07 08:11:58;;;;;;;9.50;8.50;;;;;;;19.15;69.87;101826.44;7398419;19;20006;-66
2023/09/07 08:14:27;;;;;;;13.80;8.55;;;;;;;19.27;69.71;101830.38;7397600;19;20017;-66
2023/09/07 08:16:56;;;;;;;9.77;8.07;;;;;;;19.38;69.34;101822.81;7398470;19;20015;-66
2023/09/07 08:19:24;;;;;;;9.45;8.45;;;;;;;19.47;68.99;101822.41;7397900;19;20505;-66
2023/09/07 08:21:53;;;;;;;9.32;7.75;;;;;;;19.57;68.35;101828.22;7397985;19;20035;-66
2023/09/07 08:24:22;;;;;;;8.55;7.60;;;;;;;19.66;67.79;101819.88;7395419;19;20028;-66
2023/09/07 08:26:51;;;;;;;9.95;7.68;;;;;;;19.77;67.35;101815.88;7397646;19;20073;-65
2023/09/07 08:29:26;;;;;;;9.38;7.43;;;;;;;19.88;66.77;101810.97;7397676;19;20018;-66
2023/09/07 08:31:55;;;;;;;8.70;6.88;;;;;;;20.00;65.80;101821.09;7395881;19;20024;-66
2023/09/07 08:34:24;;;;;;;9.02;7.20;;;;;;;20.11;65.38;101812.59;7396492;19;20038;-66
2023/09/07 08:36:53;;;;;;;13.35;7.47;;;;;;;20.25;65.08;101819.09;7395742;19;20075;-66
2023/09/07 08:39:23;;;;;;;8.85;7.70;;;;;;;20.36;64.97;101816.81;7402766;19;20123;-66
2023/09/07 08:41:52;;;;;;;9.07;7.07;;;;;;;20.48;64.57;101821.56;7398737;19;20019;-66
2023/09/07 08:44:23;;;;;;;8.60;6.65;;;;;;;20.59;64.25;101818.41;7396825;19;20375;-65
2023/09/07 08:46:54;;;;;;;8.48;6.53;;;;;;;20.71;63.85;101822.31;7398059;19;20036;-66
2023/09/07 08:49:23;;;;;;;8.02;6.72;;;;;;;20.83;62.99;101820.88;7398008;19;20501;-66
2023/09/07 08:51:52;;;;;;;10.40;6.40;;;;;;;20.95;62.53;101822.97;7395033;19;20545;-67
2023/09/07 08:54:21;;;;;;;7.10;6.20;;;;;;;21.05;62.16;101817.16;7395250;19;20030;-65
2023/09/07 08:56:50;;;;;;;10.43;6.68;;;;;;;21.17;61.69;101813.91;7395006;19;20014;-65
2023/09/07 08:59:18;;;;;;;8.63;6.57;;;;;;;21.28;61.18;101818.69;7397112;19;20027;-66
2023/09/07 09:01:49;;;;;;;8.70;5.95;;;;;;;21.40;60.72;101819.91;7396304;19;20027;-66
2023/09/07 09:04:18;;;;;;;9.48;6.63;;;;;;;21.49;60.84;101808.75;7397103;19;20035;-66
2023/09/07 09:06:47;;;;;;;9.93;5.78;;;;;;;21.59;60.68;101819.84;7397492;19;20024;-66
2023/09/07 09:09:25;;;;;;;8.88;6.30;;;;;;;21.70;59.52;101819.28;7396645;19;20022;-66
2023/09/07 09:11:53;;;;;;;9.48;7.15;;;;;;;21.80;59.61;101813.41;7394826;19;20007;-65
2023/09/07 09:14:24;;;;;;;7.60;5.63;;;;;;;21.90;59.29;101810.22;7393969;19;20014;-65
2023/09/07 09:16:55;;;;;;;7.68;6.00;;;;;;;22.01;59.18;101807.00;7396418;19;20010;-65
2023/09/07 09:19:33;;;;;;;8.18;6.20;;;;;;;22.13;58.29;101801.00;7396547;19;20482;-64
2023/09/07 09:22:03;;;;;;;9.13;6.45;;;;;;;22.23;58.40;101801.34;7395034;19;20010;-65
2023/09/07 09:24:35;;;;;;;7.32;5.35;;;;;;;22.32;57.48;101802.66;7396137;19;20010;-66
2023/09/07 09:27:03;;;;;;;6.38;5.78;;;;;;;22.42;57.72;101803.94;7394845;19;20018;-66
2023/09/07 09:29:34;;;;;;;6.18;5.30;;;;;;;22.52;56.47;101802.47;7396240;19;20014;-66
2023/09/07 09:32:07;;;;;;;6.90;5.55;;;;;;;22.61;56.53;101804.63;7396496;19;20014;-66
2023/09/07 09:34:37;;;;;;;8.98;7.22;;;;;;;22.72;56.09;101797.81;7394529;19;20014;-66
2023/09/07 09:37:06;;;;;;;6.75;5.50;;;;;;;22.83;55.54;101797.22;7393904;19;20372;-66
2023/09/07 09:39:34;;;;;;;7.10;5.55;;;;;;;22.94;55.30;101798.31;7396041;19;20032;-66
2023/09/07 09:42:04;;;;;;;6.00;5.35;;;;;;;23.05;54.48;101796.81;7395828;19;20423;-66
2023/09/07 09:44:36;;;;;;;6.60;5.25;;;;;;;23.15;54.62;101798.06;7393043;19;20490;-66
2023/09/07 09:47:08;;;;;;;6.32;5.60;;;;;;;23.25;54.18;101799.25;7391317;19;20017;-66
2023/09/07 09:49:38;;;;;;;6.20;5.43;;;;;;;23.33;53.42;101788.09;7395217;19;20010;-65
2023/09/07 09:52:07;;;;;;;8.55;5.30;;;;;;;23.43;53.55;101796.44;7393048;19;20471;-66
2023/09/07 09:54:38;;;;;;;8.00;5.53;;;;;;;23.53;52.50;101786.00;7393143;19;20027;-65
2023/09/07 09:57:06;;;;;;;5.80;4.47;;;;;;;23.62;52.06;101785.47;7395677;19;20074;-65
2023/09/07 09:59:35;;;;;;;6.32;5.05;;;;;;;23.70;51.83;101779.66;7393399;19;20478;-65
2023/09/07 10:02:07;;;;;;;5.22;4.72;;;;;;;23.80;51.24;101779.97;7395359;19;20018;-66
2023/09/07 10:04:36;;;;;;;7.27;4.80;;;;;;;23.89;51.09;101780.22;7393696;19;20014;-66
2023/09/07 10:07:05;;;;;;;8.02;5.22;;;;;;;23.99;50.25;101777.88;7394830;19;20485;-67
2023/09/07 10:09:36;;;;;;;8.15;4.70;;;;;;;24.07;50.07;101772.03;7394569;19;20014;-67
2023/09/07 10:12:08;;;;;;;6.18;4.75;;;;;;;24.14;49.84;101773.38;7394513;19;20478;-67
2023/09/07 10:14:44;;;;;;;6.72;4.88;;;;;;;24.21;48.74;101772.03;7392212;19;20014;-68
2023/09/07 10:17:25;;;;;;;5.35;4.70;;;;;;;24.29;48.50;101774.22;7394735;19;20015;-68
2023/09/07 10:20:05;;;;;;;5.80;4.50;;;;;;;24.39;48.77;101777.16;7395040;19;20031;-66
2023/09/07 10:22:33;;;;;;;7.20;5.22;;;;;;;24.48;48.28;101768.53;7395082;19;20018;-66
2023/09/07 10:25:03;;;;;;;5.95;4.43;;;;;;;24.55;47.89;101764.50;7393642;19;20070;-67
2023/09/07 10:27:39;;;;;;;6.00;4.63;;;;;;;24.65;47.44;101772.84;7394784;19;20017;-65
2023/09/07 10:30:18;;;;;;;7.97;4.68;;;;;;;24.75;46.90;101758.84;7394416;19;20391;-66
2023/09/07 10:32:49;;;;;;;6.25;4.50;;;;;;;24.84;46.37;101761.75;7394380;19;20043;-66
2023/09/07 10:35:19;;;;;;;8.10;4.97;;;;;;;24.95;45.89;101760.19;7393278;19;20031;-67
2023/09/07 10:37:48;;;;;;;7.28;5.03;;;;;;;25.04;45.73;101762.25;7391939;19;20498;-67
2023/09/07 10:40:22;;;;;;;6.28;3.97;;;;;;;25.14;45.38;101755.28;7393649;19;20013;-67
2023/09/07 10:42:51;;;;;;;4.88;4.38;;;;;;;25.25;45.66;101759.06;7394493;19;20031;-67
2023/09/07 10:45:19;;;;;;;6.28;4.53;;;;;;;25.33;45.44;101754.91;7392351;19;20018;-66
2023/09/07 10:47:50;;;;;;;6.57;4.50;;;;;;;25.41;44.95;101758.94;7393417;19;20007;-66
2023/09/07 10:50:19;;;;;;;5.30;4.10;;;;;;;25.47;44.53;101761.19;7393287;19;20027;-66
2023/09/07 10:52:47;;;;;;;5.97;4.60;;;;;;;25.53;44.36;101755.41;7392790;19;20011;-66
2023/09/07 10:55:16;;;;;;;7.00;5.28;;;;;;;25.58;44.81;101755.94;7392758;19;20074;-65
2023/09/07 10:57:45;;;;;;;5.50;4.78;;;;;;;25.63;43.87;101752.91;7392052;19;20034;-66
2023/09/07 11:00:16;;;;;;;5.65;4.10;;;;;;;25.70;43.77;101751.53;7399764;19;20077;-66
2023/09/07 11:02:45;;;;;;;6.93;4.80;;;;;;;25.74;43.76;101755.69;7401018;19;20354;-66
2023/09/07 11:05:18;;;;;;;6.53;4.43;;;;;;;25.79;43.33;101750.91;7400174;19;20070;-67
2023/09/07 11:07:46;;;;;;;6.68;4.47;;;;;;;25.84;43.36;101759.50;7400443;19;20071;-66
2023/09/07 11:10:15;;;;;;;7.80;4.20;;;;;;;25.91;42.99;101754.53;7397588;19;20018;-67
2023/09/07 11:12:43;;;;;;;6.20;4.38;;;;;;;25.96;43.04;101747.00;7397785;19;20018;-66
2023/09/07 11:15:13;;;;;;;5.93;4.10;;;;;;;26.00;42.75;101747.63;7395658;19;20027;-66
2023/09/07 11:17:42;;;;;;;5.55;4.20;;;;;;;26.05;42.39;101750.00;7396498;19;20029;-70
2023/09/07 11:20:11;;;;;;;5.38;4.10;;;;;;;26.10;42.80;101739.81;7397132;19;20093;-69
2023/09/07 11:22:44;;;;;;;6.78;4.60;;;;;;;26.12;42.33;101741.41;7399848;19;20021;-68
2023/09/07 11:25:19;;;;;;;5.67;4.43;;;;;;;26.18;42.25;101737.41;7396522;19;20019;-69
2023/09/07 11:27:47;;;;;;;4.60;3.97;;;;;;;26.26;42.36;101736.84;7398103;19;20031;-67